createdAt,value
2017-07-11T00:00:00.016Z,18.05
2017-07-11T00:00:40.904Z,18.15
2017-07-11T00:01:21.792Z,18.07
2017-07-11T00:02:02.685Z,18.23
2017-07-11T00:02:43.587Z,18.26
2017-07-11T00:03:24.476Z,18.4
2017-07-11T00:04:05.377Z,18.29
2017-07-11T00:04:46.278Z,18.25
2017-07-11T00:05:27.162Z,18.26
2017-07-11T00:06:08.054Z,18.35
2017-07-11T00:06:48.954Z,18.35
2017-07-11T00:07:29.840Z,18.33
2017-07-11T00:08:10.726Z,18.34
2017-07-11T00:08:51.624Z,18.4
2017-07-11T00:09:32.503Z,18.34
2017-07-11T00:10:13.402Z,18.37
2017-07-11T00:10:54.310Z,18.35
2017-07-11T00:11:35.181Z,18.33
2017-07-11T00:12:16.078Z,18.4
2017-07-11T00:12:56.982Z,18.35
2017-07-11T00:13:37.863Z,18.19
2017-07-11T00:14:18.755Z,18.15
2017-07-11T00:14:59.650Z,18.07
2017-07-11T00:15:40.538Z,18.04
2017-07-11T00:16:21.439Z,18.07
2017-07-11T00:17:02.334Z,18.22
2017-07-11T00:17:43.224Z,18.28
2017-07-11T00:18:24.108Z,18.28
2017-07-11T00:19:05.010Z,18.16
2017-07-11T00:19:45.891Z,18.13
2017-07-11T00:20:26.782Z,18.13
2017-07-11T00:21:07.674Z,18.08
2017-07-11T00:21:48.564Z,18.18
2017-07-11T00:22:29.456Z,18.2
2017-07-11T00:23:10.362Z,18.25
2017-07-11T00:23:51.248Z,18.22
2017-07-11T00:24:32.135Z,18.23
2017-07-11T00:25:13.035Z,18.08
2017-07-11T00:25:53.920Z,17.89
2017-07-11T00:26:34.811Z,18.03
2017-07-11T00:27:15.715Z,18.01
2017-07-11T00:27:56.595Z,18.1
2017-07-11T00:28:37.484Z,18.1
2017-07-11T00:29:18.390Z,18.07
2017-07-11T00:29:59.269Z,18.11
2017-07-11T00:30:40.163Z,18.11
2017-07-11T00:31:21.048Z,18.22
2017-07-11T00:32:01.944Z,17.95
2017-07-11T00:32:42.833Z,17.85
2017-07-11T00:33:23.777Z,17.71
2017-07-11T00:34:04.603Z,17.64
2017-07-11T00:34:45.489Z,17.76
2017-07-11T00:35:26.375Z,17.76
2017-07-11T00:36:07.271Z,17.82
2017-07-11T00:36:48.164Z,17.86
2017-07-11T00:37:29.052Z,17.83
2017-07-11T00:38:09.950Z,17.82
2017-07-11T00:38:50.833Z,17.71
2017-07-11T00:39:31.724Z,17.68
2017-07-11T00:40:12.625Z,17.63
2017-07-11T00:40:53.505Z,17.74
2017-07-11T00:41:34.395Z,17.67
2017-07-11T00:42:15.281Z,17.6
2017-07-11T00:42:56.186Z,17.7
2017-07-11T00:43:37.066Z,17.71
2017-07-11T00:44:17.956Z,17.85
2017-07-11T00:44:58.844Z,18.01
2017-07-11T00:45:39.798Z,17.95
2017-07-11T00:46:20.682Z,17.9
2017-07-11T00:47:01.571Z,17.86
2017-07-11T00:47:42.467Z,17.98
2017-07-11T00:48:23.355Z,18.01
2017-07-11T00:49:04.250Z,18.07
2017-07-11T00:49:45.147Z,18.07
2017-07-11T00:50:26.068Z,18.04
2017-07-11T00:51:06.909Z,18.03
2017-07-11T00:51:47.801Z,17.92
2017-07-11T00:52:28.682Z,18.04
2017-07-11T00:53:09.561Z,18.08
2017-07-11T00:53:50.451Z,17.98
2017-07-11T00:54:31.356Z,17.76
2017-07-11T00:55:12.240Z,17.71
2017-07-11T00:55:53.144Z,17.65
2017-07-11T00:56:34.037Z,17.68
2017-07-11T00:57:14.948Z,17.57
2017-07-11T00:57:55.836Z,17.64
2017-07-11T00:58:36.745Z,17.72
2017-07-11T00:59:17.656Z,17.8
2017-07-11T00:59:58.541Z,17.8
2017-07-11T01:00:39.424Z,17.8
2017-07-11T01:01:20.323Z,17.85
2017-07-11T01:02:01.215Z,17.86
2017-07-11T01:02:42.082Z,17.83
2017-07-11T01:03:22.970Z,17.8
2017-07-11T01:04:03.855Z,17.79
2017-07-11T01:04:44.742Z,17.82
2017-07-11T01:05:25.645Z,17.72
2017-07-11T01:06:06.531Z,17.63
2017-07-11T01:06:47.419Z,17.7
2017-07-11T01:07:28.302Z,17.64
2017-07-11T01:08:09.188Z,17.7
2017-07-11T01:08:50.087Z,17.67
2017-07-11T01:09:30.958Z,17.76
2017-07-11T01:10:11.852Z,17.76
2017-07-11T01:10:52.743Z,17.68
2017-07-11T01:11:33.684Z,17.59
2017-07-11T01:12:14.529Z,17.63
2017-07-11T01:12:55.431Z,17.71
2017-07-11T01:13:36.322Z,17.52
2017-07-11T01:14:17.210Z,17.6
2017-07-11T01:14:58.097Z,17.64
2017-07-11T01:15:38.990Z,17.76
2017-07-11T01:16:19.888Z,17.72
2017-07-11T01:17:00.770Z,17.54
2017-07-11T01:17:41.660Z,17.71
2017-07-11T01:18:22.573Z,17.79
2017-07-11T01:19:03.467Z,17.78
2017-07-11T01:19:44.354Z,17.78
2017-07-11T01:20:25.246Z,17.8
2017-07-11T01:21:06.136Z,17.7
2017-07-11T01:21:47.043Z,17.71
2017-07-11T01:22:27.931Z,17.63
2017-07-11T01:23:08.830Z,17.79
2017-07-11T01:23:49.722Z,17.78
2017-07-11T01:24:30.622Z,17.72
2017-07-11T01:25:11.512Z,17.86
2017-07-11T01:25:52.394Z,17.86
2017-07-11T01:26:33.282Z,17.94
2017-07-11T01:27:14.197Z,17.8
2017-07-11T01:27:55.115Z,17.79
2017-07-11T01:28:35.987Z,17.65
2017-07-11T01:29:16.887Z,17.72
2017-07-11T01:29:57.780Z,17.63
2017-07-11T01:30:38.655Z,17.71
2017-07-11T01:31:19.560Z,17.74
2017-07-11T01:32:00.459Z,17.8
2017-07-11T01:32:41.353Z,17.85
2017-07-11T01:33:22.242Z,17.64
2017-07-11T01:34:03.131Z,17.65
2017-07-11T01:34:44.019Z,17.63
2017-07-11T01:35:24.901Z,17.6
2017-07-11T01:36:05.792Z,17.56
2017-07-11T01:36:46.689Z,17.48
2017-07-11T01:37:27.578Z,17.6
2017-07-11T01:38:08.470Z,17.63
2017-07-11T01:38:49.359Z,17.67
2017-07-11T01:39:30.245Z,17.6
2017-07-11T01:40:11.145Z,17.49
2017-07-11T01:40:52.036Z,17.48
2017-07-11T01:41:32.921Z,17.64
2017-07-11T01:42:13.826Z,17.63
2017-07-11T01:42:54.710Z,17.36
2017-07-11T01:43:35.592Z,17.33
2017-07-11T01:44:16.481Z,17.52
2017-07-11T01:44:57.367Z,17.41
2017-07-11T01:45:38.257Z,17.42
2017-07-11T01:46:19.154Z,17.41
2017-07-11T01:47:00.045Z,17.41
2017-07-11T01:47:40.927Z,17.48
2017-07-11T01:48:21.837Z,17.34
2017-07-11T01:49:02.716Z,17.38
2017-07-11T01:49:43.603Z,17.38
2017-07-11T01:50:24.482Z,17.27
2017-07-11T01:51:05.370Z,17.24
2017-07-11T01:51:46.251Z,17.29
2017-07-11T01:52:27.154Z,17.3
2017-07-11T01:53:08.043Z,17.3
2017-07-11T01:53:48.930Z,17.26
2017-07-11T01:54:29.830Z,17.31
2017-07-11T01:55:10.721Z,17.27
2017-07-11T01:55:51.613Z,17.36
2017-07-11T01:56:32.516Z,17.15
2017-07-11T01:57:13.410Z,17.24
2017-07-11T01:57:54.289Z,17.19
2017-07-11T01:58:35.180Z,17.23
2017-07-11T01:59:16.074Z,17.12
2017-07-11T01:59:56.963Z,17.16
2017-07-11T02:00:37.843Z,17.23
2017-07-11T02:01:18.728Z,17.15
2017-07-11T02:01:59.629Z,17.14
2017-07-11T02:02:40.529Z,17.15
2017-07-11T02:03:21.413Z,17.29
2017-07-11T02:04:02.314Z,17.14
2017-07-11T02:04:43.195Z,17.08
2017-07-11T02:05:24.098Z,17.14
2017-07-11T02:06:04.983Z,17.16
2017-07-11T02:06:45.875Z,17.2
2017-07-11T02:07:26.781Z,17.11
2017-07-11T02:08:07.674Z,17.2
2017-07-11T02:08:48.571Z,17.06
2017-07-11T02:09:29.459Z,17.19
2017-07-11T02:10:10.355Z,16.96
2017-07-11T02:10:51.240Z,17.05
2017-07-11T02:11:32.132Z,17.06
2017-07-11T02:12:13.014Z,17.14
2017-07-11T02:12:53.910Z,17.16
2017-07-11T02:13:34.797Z,17.27
2017-07-11T02:14:15.683Z,17.23
2017-07-11T02:14:56.550Z,17.23
2017-07-11T02:15:37.431Z,17.06
2017-07-11T02:16:18.309Z,16.94
2017-07-11T02:16:59.195Z,17.05
2017-07-11T02:17:40.094Z,17.06
2017-07-11T02:18:20.992Z,17.11
2017-07-11T02:19:01.868Z,17.02
2017-07-11T02:19:42.761Z,17.04
2017-07-11T02:20:23.656Z,17.06
2017-07-11T02:21:04.545Z,17.04
2017-07-11T02:21:45.429Z,17.02
2017-07-11T02:22:26.329Z,17.04
2017-07-11T02:23:07.222Z,17.06
2017-07-11T02:23:48.105Z,17.09
2017-07-11T02:24:28.987Z,16.97
2017-07-11T02:25:09.870Z,17.05
2017-07-11T02:25:50.764Z,17.05
2017-07-11T02:26:31.662Z,17.12
2017-07-11T02:27:12.548Z,17.06
2017-07-11T02:27:53.453Z,17.06
2017-07-11T02:28:34.333Z,16.94
2017-07-11T02:29:15.220Z,16.96
2017-07-11T02:29:56.127Z,16.97
2017-07-11T02:30:37.038Z,16.91
2017-07-11T02:31:17.952Z,16.89
2017-07-11T02:31:58.820Z,16.96
2017-07-11T02:32:39.709Z,16.87
2017-07-11T02:33:20.603Z,16.84
2017-07-11T02:34:01.505Z,16.84
2017-07-11T02:34:42.387Z,16.78
2017-07-11T02:35:23.301Z,16.76
2017-07-11T02:36:04.188Z,16.81
2017-07-11T02:36:45.076Z,16.83
2017-07-11T02:37:25.976Z,16.84
2017-07-11T02:38:06.849Z,16.87
2017-07-11T02:38:47.757Z,16.78
2017-07-11T02:39:28.623Z,16.78
2017-07-11T02:40:09.550Z,16.84
2017-07-11T02:40:50.415Z,16.79
2017-07-11T02:41:31.306Z,16.87
2017-07-11T02:42:12.205Z,16.89
2017-07-11T02:42:53.109Z,16.89
2017-07-11T02:43:34.006Z,16.83
2017-07-11T02:44:14.887Z,16.89
2017-07-11T02:44:55.765Z,16.99
2017-07-11T02:45:36.655Z,16.96
2017-07-11T02:46:17.556Z,16.96
2017-07-11T02:46:58.434Z,16.84
2017-07-11T02:47:39.325Z,16.81
2017-07-11T02:48:20.219Z,16.75
2017-07-11T02:49:01.098Z,16.72
2017-07-11T02:49:41.990Z,16.79
2017-07-11T02:50:22.893Z,16.81
2017-07-11T02:51:03.774Z,16.83
2017-07-11T02:51:44.659Z,16.79
2017-07-11T02:52:25.568Z,16.76
2017-07-11T02:53:06.474Z,16.61
2017-07-11T02:53:47.359Z,16.65
2017-07-11T02:54:28.258Z,16.75
2017-07-11T02:55:09.144Z,16.75
2017-07-11T02:55:50.035Z,16.66
2017-07-11T02:56:30.924Z,16.66
2017-07-11T02:57:11.822Z,16.74
2017-07-11T02:57:52.702Z,16.66
2017-07-11T02:58:33.586Z,16.71
2017-07-11T02:59:14.464Z,16.69
2017-07-11T02:59:55.354Z,16.65
2017-07-11T03:00:36.229Z,16.66
2017-07-11T03:01:17.127Z,16.66
2017-07-11T03:01:58.021Z,16.66
2017-07-11T03:02:38.901Z,16.5
2017-07-11T03:03:19.828Z,16.54
2017-07-11T03:04:00.733Z,16.47
2017-07-11T03:04:41.613Z,16.49
2017-07-11T03:05:22.507Z,16.61
2017-07-11T03:06:03.407Z,16.6
2017-07-11T03:06:44.299Z,16.68
2017-07-11T03:07:25.180Z,16.61
2017-07-11T03:08:06.063Z,16.54
2017-07-11T03:08:46.970Z,16.5
2017-07-11T03:09:27.859Z,16.49
2017-07-11T03:10:08.761Z,16.49
2017-07-11T03:10:49.675Z,16.5
2017-07-11T03:11:30.559Z,16.46
2017-07-11T03:12:11.464Z,16.51
2017-07-11T03:12:52.349Z,16.5
2017-07-11T03:13:33.217Z,16.46
2017-07-11T03:14:14.115Z,16.51
2017-07-11T03:14:55.003Z,16.35
2017-07-11T03:15:35.906Z,16.38
2017-07-11T03:16:16.791Z,16.38
2017-07-11T03:16:57.679Z,16.39
2017-07-11T03:17:38.558Z,16.39
2017-07-11T03:18:19.460Z,16.36
2017-07-11T03:19:00.404Z,16.26
2017-07-11T03:19:41.302Z,16.33
2017-07-11T03:20:22.122Z,16.26
2017-07-11T03:21:03.006Z,16.36
2017-07-11T03:21:43.895Z,16.46
2017-07-11T03:22:24.789Z,16.38
2017-07-11T03:23:05.679Z,16.39
2017-07-11T03:23:46.558Z,16.31
2017-07-11T03:24:27.447Z,16.28
2017-07-11T03:25:08.327Z,16.21
2017-07-11T03:25:49.227Z,16.26
2017-07-11T03:26:30.110Z,16.26
2017-07-11T03:27:11.001Z,16.15
2017-07-11T03:27:51.890Z,16.04
2017-07-11T03:28:32.778Z,16.1
2017-07-11T03:29:13.665Z,16.05
2017-07-11T03:29:54.544Z,16.16
2017-07-11T03:30:35.449Z,16.09
2017-07-11T03:31:16.345Z,16.04
2017-07-11T03:31:57.228Z,15.94
2017-07-11T03:32:38.124Z,15.98
2017-07-11T03:33:18.998Z,15.94
2017-07-11T03:33:59.882Z,16
2017-07-11T03:34:40.758Z,15.97
2017-07-11T03:35:21.635Z,15.95
2017-07-11T03:36:02.523Z,15.97
2017-07-11T03:36:43.435Z,15.91
2017-07-11T03:37:24.326Z,15.94
2017-07-11T03:38:05.210Z,16.01
2017-07-11T03:38:46.097Z,15.98
2017-07-11T03:39:26.993Z,15.95
2017-07-11T03:40:07.875Z,15.97
2017-07-11T03:40:48.765Z,15.97
2017-07-11T03:41:29.654Z,15.94
2017-07-11T03:42:10.563Z,15.98
2017-07-11T03:42:51.440Z,15.97
2017-07-11T03:43:32.384Z,16.05
2017-07-11T03:44:13.232Z,16.04
2017-07-11T03:44:54.126Z,16.12
2017-07-11T03:45:35.024Z,16.13
2017-07-11T03:46:15.913Z,15.97
2017-07-11T03:46:56.798Z,16.05
2017-07-11T03:47:37.689Z,15.94
2017-07-11T03:48:18.582Z,15.97
2017-07-11T03:48:59.468Z,16.08
2017-07-11T03:49:40.358Z,16.08
2017-07-11T03:50:21.240Z,15.94
2017-07-11T03:51:02.126Z,16.04
2017-07-11T03:51:43.023Z,15.94
2017-07-11T03:52:23.909Z,15.97
2017-07-11T03:53:04.801Z,15.92
2017-07-11T03:53:45.689Z,15.9
2017-07-11T03:54:26.586Z,15.88
2017-07-11T03:55:07.476Z,15.91
2017-07-11T03:55:48.358Z,15.9
2017-07-11T03:56:29.248Z,15.88
2017-07-11T03:57:10.137Z,15.9
2017-07-11T03:57:51.019Z,15.9
2017-07-11T03:58:31.900Z,16
2017-07-11T03:59:12.792Z,15.98
2017-07-11T03:59:53.683Z,15.92
2017-07-11T04:00:34.557Z,16
2017-07-11T04:01:15.445Z,15.97
2017-07-11T04:01:56.336Z,15.91
2017-07-11T04:02:37.221Z,15.97
2017-07-11T04:03:18.119Z,15.91
2017-07-11T04:03:59.008Z,16.04
2017-07-11T04:04:39.889Z,16.05
2017-07-11T04:05:20.778Z,16
2017-07-11T04:06:01.669Z,16.02
2017-07-11T04:06:42.557Z,16.12
2017-07-11T04:07:23.436Z,16.13
2017-07-11T04:08:04.313Z,16.12
2017-07-11T04:08:45.220Z,16.21
2017-07-11T04:09:26.102Z,16.29
2017-07-11T04:10:06.970Z,16.12
2017-07-11T04:10:47.863Z,16.05
2017-07-11T04:11:28.753Z,16.15
2017-07-11T04:12:09.636Z,16.04
2017-07-11T04:12:50.515Z,16.12
2017-07-11T04:13:31.424Z,16.09
2017-07-11T04:14:12.323Z,16.05
2017-07-11T04:14:53.213Z,16.09
2017-07-11T04:15:34.102Z,16.1
2017-07-11T04:16:14.989Z,16.15
2017-07-11T04:16:55.890Z,16.32
2017-07-11T04:17:36.785Z,16.31
2017-07-11T04:18:17.682Z,16.38
2017-07-11T04:18:58.573Z,16.46
2017-07-11T04:19:39.460Z,16.51
2017-07-11T04:20:20.361Z,16.49
2017-07-11T04:21:01.239Z,16.39
2017-07-11T04:21:42.170Z,16.47
2017-07-11T04:22:23.061Z,16.41
2017-07-11T04:23:03.955Z,16.26
2017-07-11T04:23:44.830Z,16.21
2017-07-11T04:24:25.737Z,16.28
2017-07-11T04:25:06.622Z,16.21
2017-07-11T04:25:47.506Z,16.41
2017-07-11T04:26:28.413Z,16.43
2017-07-11T04:27:09.298Z,16.35
2017-07-11T04:27:50.233Z,16.42
2017-07-11T04:28:31.136Z,16.43
2017-07-11T04:29:12.016Z,16.51
2017-07-11T04:29:52.907Z,16.49
2017-07-11T04:30:33.798Z,16.46
2017-07-11T04:31:14.690Z,16.42
2017-07-11T04:31:55.583Z,16.36
2017-07-11T04:32:36.473Z,16.36
2017-07-11T04:33:17.374Z,16.35
2017-07-11T04:33:58.257Z,16.49
2017-07-11T04:34:39.144Z,16.46
2017-07-11T04:35:20.043Z,16.43
2017-07-11T04:36:00.933Z,16.39
2017-07-11T04:36:41.837Z,16.47
2017-07-11T04:37:22.775Z,16.56
2017-07-11T04:38:03.665Z,16.54
2017-07-11T04:38:44.566Z,16.51
2017-07-11T04:39:25.478Z,16.32
2017-07-11T04:40:06.367Z,16.29
2017-07-11T04:40:47.255Z,16.17
2017-07-11T04:41:28.150Z,16.13
2017-07-11T04:42:09.037Z,16.13
2017-07-11T04:42:49.923Z,16.26
2017-07-11T04:43:30.806Z,16.29
2017-07-11T04:44:11.700Z,16.39
2017-07-11T04:44:52.591Z,16.31
2017-07-11T04:45:33.476Z,16.24
2017-07-11T04:46:14.364Z,16.31
2017-07-11T04:46:55.253Z,16.32
2017-07-11T04:47:36.142Z,16.36
2017-07-11T04:48:17.039Z,16.49
2017-07-11T04:48:57.926Z,16.49
2017-07-11T04:49:38.819Z,16.49
2017-07-11T04:50:19.724Z,16.46
2017-07-11T04:51:00.605Z,16.56
2017-07-11T04:51:41.486Z,16.69
2017-07-11T04:52:22.373Z,16.66
2017-07-11T04:53:03.266Z,16.74
2017-07-11T04:53:44.198Z,16.65
2017-07-11T04:54:25.085Z,16.53
2017-07-11T04:55:05.980Z,16.51
2017-07-11T04:55:46.867Z,16.56
2017-07-11T04:56:27.766Z,16.69
2017-07-11T04:57:08.655Z,16.65
2017-07-11T04:57:49.543Z,16.79
2017-07-11T04:58:30.431Z,16.81
2017-07-11T04:59:11.320Z,16.6
2017-07-11T04:59:52.223Z,16.64
2017-07-11T05:00:33.111Z,16.76
2017-07-11T05:01:13.999Z,16.86
2017-07-11T05:01:54.900Z,16.86
2017-07-11T05:02:35.789Z,16.75
2017-07-11T05:03:16.683Z,16.9
2017-07-11T05:03:57.573Z,17.01
2017-07-11T05:04:38.459Z,17.14
2017-07-11T05:05:19.348Z,17.11
2017-07-11T05:06:00.232Z,17.15
2017-07-11T05:06:41.150Z,17.2
2017-07-11T05:07:22.039Z,17.24
2017-07-11T05:08:02.932Z,17.11
2017-07-11T05:08:43.821Z,17.08
2017-07-11T05:09:24.725Z,17.05
2017-07-11T05:10:05.619Z,17.05
2017-07-11T05:10:46.516Z,16.96
2017-07-11T05:11:27.404Z,17.01
2017-07-11T05:12:08.291Z,17.2
2017-07-11T05:12:49.192Z,17.29
2017-07-11T05:13:30.086Z,17.06
2017-07-11T05:14:10.977Z,17.23
2017-07-11T05:14:51.871Z,17.52
2017-07-11T05:15:32.764Z,17.36
2017-07-11T05:16:13.658Z,17.22
2017-07-11T05:16:54.574Z,17.06
2017-07-11T05:17:35.468Z,17.2
2017-07-11T05:18:16.356Z,17.36
2017-07-11T05:18:57.256Z,17.52
2017-07-11T05:19:38.153Z,17.23
2017-07-11T05:20:19.054Z,17.49
2017-07-11T05:20:59.938Z,17.59
2017-07-11T05:21:40.822Z,17.76
2017-07-11T05:22:21.714Z,17.7
2017-07-11T05:23:02.607Z,17.42
2017-07-11T05:23:43.502Z,17.23
2017-07-11T05:24:24.395Z,17.38
2017-07-11T05:25:05.279Z,17.39
2017-07-11T05:25:46.172Z,17.33
2017-07-11T05:26:27.085Z,17.23
2017-07-11T05:27:07.947Z,17.34
2017-07-11T05:27:48.836Z,17.31
2017-07-11T05:28:29.754Z,17.26
2017-07-11T05:29:10.631Z,17.34
2017-07-11T05:29:51.523Z,17.52
2017-07-11T05:30:32.407Z,17.36
2017-07-11T05:31:13.307Z,17.42
2017-07-11T05:31:54.206Z,17.54
2017-07-11T05:32:35.089Z,17.54
2017-07-11T05:33:15.980Z,17.72
2017-07-11T05:33:56.870Z,17.67
2017-07-11T05:34:37.761Z,17.72
2017-07-11T05:35:18.645Z,17.59
2017-07-11T05:35:59.533Z,17.56
2017-07-11T05:36:40.429Z,17.59
2017-07-11T05:37:21.312Z,17.48
2017-07-11T05:38:02.209Z,17.3
2017-07-11T05:38:43.099Z,17.39
2017-07-11T05:39:23.991Z,17.46
2017-07-11T05:40:04.886Z,17.51
2017-07-11T05:40:45.787Z,17.59
2017-07-11T05:41:26.672Z,17.41
2017-07-11T05:42:07.567Z,17.42
2017-07-11T05:42:48.462Z,17.3
2017-07-11T05:43:29.356Z,17.38
2017-07-11T05:44:10.251Z,17.22
2017-07-11T05:44:51.142Z,17.14
2017-07-11T05:45:32.034Z,17.15
2017-07-11T05:46:12.930Z,17.02
2017-07-11T05:46:53.814Z,17.09
2017-07-11T05:47:34.714Z,17.06
2017-07-11T05:48:15.605Z,17.22
2017-07-11T05:48:56.493Z,17.41
2017-07-11T05:49:37.377Z,17.56
2017-07-11T05:50:18.263Z,17.51
2017-07-11T05:50:59.173Z,17.67
2017-07-11T05:51:40.070Z,17.38
2017-07-11T05:52:20.961Z,17.36
2017-07-11T05:53:01.845Z,17.22
2017-07-11T05:53:42.745Z,17.15
2017-07-11T05:54:23.631Z,17.16
2017-07-11T05:55:04.507Z,17.19
2017-07-11T05:55:45.402Z,17.3
2017-07-11T05:56:26.301Z,17.33
2017-07-11T05:57:07.200Z,17.44
2017-07-11T05:57:48.129Z,17.63
2017-07-11T05:58:29.011Z,17.57
2017-07-11T05:59:09.894Z,17.63
2017-07-11T05:59:50.788Z,17.46
2017-07-11T06:00:31.678Z,17.63
2017-07-11T06:01:12.569Z,17.39
2017-07-11T06:01:53.462Z,17.45
2017-07-11T06:02:34.367Z,17.59
2017-07-11T06:03:15.262Z,17.63
2017-07-11T06:03:56.157Z,17.8
2017-07-11T06:04:37.057Z,17.64
2017-07-11T06:05:17.950Z,17.56
2017-07-11T06:05:58.868Z,17.57
2017-07-11T06:06:39.760Z,17.74
2017-07-11T06:07:20.649Z,17.8
2017-07-11T06:08:01.541Z,17.95
2017-07-11T06:08:42.421Z,17.79
2017-07-11T06:09:23.306Z,17.74
2017-07-11T06:10:04.201Z,17.76
2017-07-11T06:10:45.091Z,17.85
2017-07-11T06:11:26.003Z,17.94
2017-07-11T06:12:06.898Z,18.07
2017-07-11T06:12:47.791Z,17.83
2017-07-11T06:13:28.705Z,17.63
2017-07-11T06:14:09.621Z,17.39
2017-07-11T06:14:50.524Z,17.56
2017-07-11T06:15:31.419Z,17.38
2017-07-11T06:16:12.312Z,17.38
2017-07-11T06:16:53.247Z,17.27
2017-07-11T06:17:34.142Z,17.67
2017-07-11T06:18:15.044Z,17.54
2017-07-11T06:18:55.933Z,17.87
2017-07-11T06:19:36.841Z,17.86
2017-07-11T06:20:17.724Z,17.9
2017-07-11T06:20:58.604Z,17.83
2017-07-11T06:21:39.502Z,17.85
2017-07-11T06:22:20.397Z,17.86
2017-07-11T06:23:01.301Z,17.82
2017-07-11T06:23:42.215Z,17.76
2017-07-11T06:24:23.071Z,17.68
2017-07-11T06:25:03.996Z,17.79
2017-07-11T06:25:44.893Z,17.95
2017-07-11T06:26:25.789Z,18.11
2017-07-11T06:27:06.681Z,18.11
2017-07-11T06:27:47.568Z,18.04
2017-07-11T06:28:28.452Z,17.82
2017-07-11T06:29:09.357Z,17.79
2017-07-11T06:29:50.254Z,17.92
2017-07-11T06:30:31.145Z,18
2017-07-11T06:31:12.054Z,18.07
2017-07-11T06:31:52.947Z,18.04
2017-07-11T06:32:33.851Z,17.94
2017-07-11T06:33:14.755Z,17.85
2017-07-11T06:33:55.642Z,17.82
2017-07-11T06:34:36.540Z,18.08
2017-07-11T06:35:17.436Z,17.94
2017-07-11T06:35:58.322Z,17.74
2017-07-11T06:36:39.231Z,17.72
2017-07-11T06:37:20.125Z,17.8
2017-07-11T06:38:01.022Z,18.01
2017-07-11T06:38:41.923Z,17.98
2017-07-11T06:39:22.814Z,18.2
2017-07-11T06:40:03.720Z,18.19
2017-07-11T06:40:44.610Z,18.26
2017-07-11T06:41:25.517Z,18.5
2017-07-11T06:42:06.418Z,18.75
2017-07-11T06:42:47.308Z,18.66
2017-07-11T06:43:28.203Z,18.93
2017-07-11T06:44:09.099Z,18.68
2017-07-11T06:44:49.989Z,18.44
2017-07-11T06:45:30.890Z,18.7
2017-07-11T06:46:11.784Z,19.11
2017-07-11T06:46:52.683Z,18.74
2017-07-11T06:47:33.567Z,18.6
2017-07-11T06:48:14.530Z,18.59
2017-07-11T06:48:55.381Z,18.31
2017-07-11T06:49:36.269Z,18.31
2017-07-11T06:50:17.154Z,18.45
2017-07-11T06:50:58.073Z,18.75
2017-07-11T06:51:38.966Z,19.07
2017-07-11T06:52:19.860Z,19.31
2017-07-11T06:53:00.749Z,19.15
2017-07-11T06:53:41.657Z,18.81
2017-07-11T06:54:22.554Z,18.81
2017-07-11T06:55:03.444Z,18.81
2017-07-11T06:55:44.370Z,18.58
2017-07-11T06:56:25.277Z,18.93
2017-07-11T06:57:06.172Z,18.74
2017-07-11T06:57:47.067Z,18.7
2017-07-11T06:58:27.961Z,19.08
2017-07-11T06:59:08.851Z,19.15
2017-07-11T06:59:49.747Z,19.09
2017-07-11T07:00:30.643Z,19.47
2017-07-11T07:01:11.536Z,19.71
2017-07-11T07:01:52.425Z,19.89
2017-07-11T07:02:33.328Z,20.43
2017-07-11T07:03:14.203Z,20.36
2017-07-11T07:03:55.100Z,20.56
2017-07-11T07:04:35.974Z,20.07
2017-07-11T07:05:16.872Z,19.82
2017-07-11T07:05:57.772Z,20.03
2017-07-11T07:06:38.674Z,20.66
2017-07-11T07:07:19.567Z,21.09
2017-07-11T07:08:00.468Z,20.95
2017-07-11T07:08:41.367Z,21.12
2017-07-11T07:09:22.264Z,21.55
2017-07-11T07:10:03.163Z,21.57
2017-07-11T07:10:44.062Z,21.3
2017-07-11T07:11:24.953Z,21.72
2017-07-11T07:12:05.846Z,21.83
2017-07-11T07:12:46.749Z,20.65
2017-07-11T07:13:27.657Z,20.21
2017-07-11T07:14:08.552Z,19.88
2017-07-11T07:14:49.440Z,19.81
2017-07-11T07:15:30.336Z,19.95
2017-07-11T07:16:11.239Z,20.28
2017-07-11T07:16:52.132Z,20.72
2017-07-11T07:17:33.037Z,20.63
2017-07-11T07:18:13.940Z,20.04
2017-07-11T07:18:54.855Z,19.74
2017-07-11T07:19:35.757Z,19.73
2017-07-11T07:20:16.660Z,19.74
2017-07-11T07:20:57.555Z,19.96
2017-07-11T07:21:38.448Z,19.76
2017-07-11T07:22:19.352Z,19.56
2017-07-11T07:23:00.241Z,19.41
2017-07-11T07:23:41.140Z,19.37
2017-07-11T07:24:22.047Z,19.27
2017-07-11T07:25:02.929Z,19.44
2017-07-11T07:25:43.825Z,19.48
2017-07-11T07:26:24.715Z,19.26
2017-07-11T07:27:05.600Z,19.48
2017-07-11T07:27:46.501Z,19.92
2017-07-11T07:28:27.406Z,20.16
2017-07-11T07:29:08.298Z,20.39
2017-07-11T07:29:49.193Z,20.75
2017-07-11T07:30:30.091Z,20.81
2017-07-11T07:31:10.995Z,21.27
2017-07-11T07:31:51.884Z,21.75
2017-07-11T07:32:32.766Z,22.23
2017-07-11T07:33:13.662Z,22.41
2017-07-11T07:33:54.549Z,22.68
2017-07-11T07:34:35.434Z,22.78
2017-07-11T07:35:16.343Z,22.87
2017-07-11T07:36:54.750Z,23.21
2017-07-11T07:37:35.647Z,23.4
2017-07-11T07:38:16.541Z,23.39
2017-07-11T07:38:57.449Z,23.37
2017-07-11T07:39:38.362Z,23.43
2017-07-11T07:40:19.259Z,23.44
2017-07-11T07:41:00.156Z,23.47
2017-07-11T07:41:41.057Z,22.93
2017-07-11T07:42:21.950Z,21.66
2017-07-11T07:43:02.856Z,21.64
2017-07-11T07:43:43.745Z,21.83
2017-07-11T07:44:24.649Z,22.02
2017-07-11T07:45:05.533Z,22.25
2017-07-11T07:45:46.454Z,22.39
2017-07-11T07:46:27.350Z,22.3
2017-07-11T07:47:08.253Z,22.39
2017-07-11T07:47:49.169Z,23
2017-07-11T07:48:30.069Z,23.44
2017-07-11T07:49:10.964Z,23.84
2017-07-11T07:49:51.869Z,23.66
2017-07-11T07:50:32.750Z,22.43
2017-07-11T07:51:13.657Z,21.72
2017-07-11T07:51:54.561Z,22.07
2017-07-11T07:52:35.459Z,22.29
2017-07-11T07:53:16.395Z,21.98
2017-07-11T07:53:57.275Z,22.14
2017-07-11T07:54:38.174Z,21.57
2017-07-11T07:55:19.064Z,21.8
2017-07-11T07:55:59.971Z,21.93
2017-07-11T07:56:40.877Z,22.41
2017-07-11T07:57:21.766Z,22.85
2017-07-11T07:58:02.679Z,23.58
2017-07-11T07:58:43.585Z,24.14
2017-07-11T07:59:24.520Z,24.6
2017-07-11T08:00:05.427Z,24.65
2017-07-11T08:00:46.335Z,24.58
2017-07-11T08:01:27.249Z,24.38
2017-07-11T08:02:08.159Z,24.24
2017-07-11T08:02:49.066Z,23.68
2017-07-11T08:03:29.976Z,23.54
2017-07-11T08:04:10.889Z,23.17
2017-07-11T08:04:51.797Z,23.48
2017-07-11T08:05:32.726Z,22.68
2017-07-11T08:06:13.641Z,22.51
2017-07-11T08:06:54.555Z,22.72
2017-07-11T08:07:35.461Z,22.63
2017-07-11T08:08:16.372Z,22.32
2017-07-11T08:08:57.274Z,22.68
2017-07-11T08:09:38.168Z,22.7
2017-07-11T08:10:19.069Z,22.3
2017-07-11T08:10:59.968Z,22.5
2017-07-11T08:11:40.881Z,22.59
2017-07-11T08:12:21.803Z,22.7
2017-07-11T08:13:02.722Z,22.65
2017-07-11T08:13:43.634Z,22.73
2017-07-11T08:14:24.522Z,21.99
2017-07-11T08:15:05.484Z,21.8
2017-07-11T08:15:46.354Z,21.88
2017-07-11T08:16:27.260Z,21.66
2017-07-11T08:17:08.173Z,21.96
2017-07-11T08:17:49.059Z,22.57
2017-07-11T08:18:29.993Z,23.15
2017-07-11T08:19:10.919Z,23.65
2017-07-11T08:19:51.824Z,23.92
2017-07-11T08:20:32.725Z,23.96
2017-07-11T08:21:13.631Z,24.39
2017-07-11T08:21:54.515Z,24.55
2017-07-11T08:22:35.415Z,24.89
2017-07-11T08:23:16.326Z,25.11
2017-07-11T08:23:57.218Z,25.28
2017-07-11T08:24:38.137Z,24.91
2017-07-11T08:25:19.011Z,25.32
2017-07-11T08:25:59.920Z,25.36
2017-07-11T08:26:40.819Z,25.53
2017-07-11T08:27:21.711Z,25.81
2017-07-11T08:28:02.635Z,25.96
2017-07-11T08:28:43.537Z,26.22
2017-07-11T08:29:24.440Z,26.06
2017-07-11T08:30:05.349Z,26.1
2017-07-11T08:30:46.255Z,26.09
2017-07-11T08:31:27.162Z,24.78
2017-07-11T08:32:08.073Z,24.38
2017-07-11T08:32:48.993Z,24.4
2017-07-11T08:33:29.893Z,24.74
2017-07-11T08:34:10.806Z,25.5
2017-07-11T08:34:51.697Z,25.59
2017-07-11T08:35:32.596Z,24.61
2017-07-11T08:36:13.503Z,24.08
2017-07-11T08:36:54.413Z,24.8
2017-07-11T08:37:35.303Z,25.36
2017-07-11T08:38:16.281Z,25.44
2017-07-11T08:38:57.140Z,25.38
2017-07-11T08:39:38.045Z,24.86
2017-07-11T08:40:18.960Z,24.73
2017-07-11T08:40:59.871Z,24.5
2017-07-11T08:41:40.778Z,24.39
2017-07-11T08:42:21.714Z,24.73
2017-07-11T08:43:02.622Z,25.55
2017-07-11T08:43:43.529Z,26.1
2017-07-11T08:44:24.427Z,26.65
2017-07-11T08:45:05.326Z,25.87
2017-07-11T08:45:46.229Z,24.89
2017-07-11T08:46:27.136Z,23.78
2017-07-11T08:47:08.033Z,22.93
2017-07-11T08:47:48.927Z,23.54
2017-07-11T08:48:29.831Z,23.12
2017-07-11T08:49:10.727Z,23.28